createdAt,value
2023-08-17T00:00:39.014Z,1.95
2023-08-17T00:03:05.745Z,1.90
2023-08-17T00:05:34.190Z,2.33
2023-08-17T00:08:02.132Z,1.95
2023-08-17T00:10:31.897Z,1.60
2023-08-17T00:12:59.060Z,2.50
2023-08-17T00:15:25.893Z,2.13
2023-08-17T00:17:52.615Z,1.67
2023-08-17T00:20:19.416Z,2.35
2023-08-17T00:22:46.125Z,2.20
2023-08-17T00:25:12.859Z,1.90
2023-08-17T00:27:39.527Z,2.28
2023-08-17T00:30:06.833Z,2.00
2023-08-17T00:32:33.512Z,1.77
2023-08-17T00:35:00.490Z,2.40
2023-08-17T00:37:29.098Z,2.35
2023-08-17T00:39:55.854Z,2.28
2023-08-17T00:42:22.575Z,2.90
2023-08-17T00:44:49.265Z,2.88
2023-08-17T00:47:15.958Z,2.13
2023-08-17T00:49:42.854Z,2.55
2023-08-17T00:52:09.781Z,2.78
2023-08-17T00:54:36.606Z,1.92
2023-08-17T00:57:07.531Z,2.65
2023-08-17T00:59:37.119Z,2.65
2023-08-17T01:02:04.581Z,2.33
2023-08-17T01:04:32.975Z,2.20
2023-08-17T01:06:59.705Z,2.10
2023-08-17T01:09:27.653Z,2.00
2023-08-17T01:12:01.225Z,2.80
2023-08-17T01:14:40.544Z,2.75
2023-08-17T01:17:15.991Z,2.42
2023-08-17T01:19:43.969Z,2.40
2023-08-17T01:22:12.421Z,2.20
2023-08-17T01:24:39.145Z,1.90
2023-08-17T01:27:05.856Z,4.65
2023-08-17T01:29:32.875Z,1.63
2023-08-17T01:32:08.657Z,2.63
2023-08-17T01:34:41.560Z,3.55
2023-08-17T01:37:09.030Z,4.05
2023-08-17T01:39:38.847Z,3.70
2023-08-17T01:42:06.230Z,3.72
2023-08-17T01:44:33.012Z,3.13
2023-08-17T01:46:59.718Z,3.50
2023-08-17T01:49:26.641Z,3.38
2023-08-17T01:51:53.351Z,3.22
2023-08-17T01:54:20.378Z,3.70
2023-08-17T01:56:47.208Z,3.30
2023-08-17T01:59:14.214Z,3.50
2023-08-17T02:01:41.366Z,3.53
2023-08-17T02:04:08.145Z,3.60
2023-08-17T02:06:34.869Z,3.33
2023-08-17T02:09:01.593Z,3.67
2023-08-17T02:11:28.405Z,3.55
2023-08-17T02:13:55.170Z,3.45
2023-08-17T02:16:21.942Z,2.85
2023-08-17T02:18:49.412Z,3.28
2023-08-17T02:21:16.085Z,3.08
2023-08-17T02:23:42.721Z,3.67
2023-08-17T02:26:09.573Z,3.83
2023-08-17T02:28:36.213Z,3.42
2023-08-17T02:31:03.003Z,3.40
2023-08-17T02:33:30.069Z,3.05
2023-08-17T02:35:56.910Z,3.30
2023-08-17T02:38:23.618Z,3.33
2023-08-17T02:40:51.221Z,4.22
2023-08-17T02:43:17.969Z,3.13
2023-08-17T02:45:44.791Z,2.70
2023-08-17T02:48:11.570Z,3.38
2023-08-17T02:50:38.907Z,2.78
2023-08-17T02:53:05.595Z,2.65
2023-08-17T02:55:32.415Z,2.70
2023-08-17T02:57:59.018Z,2.30
2023-08-17T03:00:25.737Z,2.92
2023-08-17T03:02:52.513Z,2.67
2023-08-17T03:05:20.002Z,2.28
2023-08-17T03:07:46.691Z,2.70
2023-08-17T03:10:14.354Z,1.77
2023-08-17T03:12:41.062Z,1.80
2023-08-17T03:15:08.111Z,2.13
2023-08-17T03:17:35.989Z,1.73
2023-08-17T03:20:06.029Z,1.80
2023-08-17T03:22:51.214Z,1.95
2023-08-17T03:25:19.992Z,1.98
2023-08-17T03:27:47.065Z,2.10
2023-08-17T03:30:14.811Z,1.90
2023-08-17T03:32:42.237Z,1.63
2023-08-17T03:35:09.405Z,1.95
2023-08-17T03:37:36.765Z,2.05
2023-08-17T03:40:04.033Z,2.17
2023-08-17T03:42:32.052Z,2.40
2023-08-17T03:44:58.825Z,2.88
2023-08-17T03:47:25.910Z,2.30
2023-08-17T03:49:53.479Z,2.53
2023-08-17T03:52:20.182Z,2.30
2023-08-17T03:54:48.514Z,2.45
2023-08-17T03:57:15.329Z,2.70
2023-08-17T03:59:42.504Z,2.10
2023-08-17T04:02:09.179Z,2.10
2023-08-17T04:04:36.438Z,1.73
2023-08-17T04:07:03.167Z,2.20
2023-08-17T04:11:58.547Z,2.70
2023-08-17T04:14:25.300Z,2.40
2023-08-17T04:19:19.482Z,2.63
2023-08-17T04:21:46.235Z,2.90
2023-08-17T04:31:33.863Z,2.60
2023-08-17T04:34:02.937Z,2.55
2023-08-17T04:36:30.146Z,2.80
2023-08-17T04:38:57.110Z,2.60
2023-08-17T04:41:24.900Z,2.42
2023-08-17T04:43:52.854Z,2.00
2023-08-17T04:46:19.604Z,2.63
2023-08-17T04:48:46.391Z,1.95
2023-08-17T04:51:15.323Z,2.38
2023-08-17T04:53:43.820Z,2.03
2023-08-17T04:56:10.626Z,2.40
2023-08-17T05:01:05.863Z,2.50
2023-08-17T05:03:34.308Z,2.20
2023-08-17T05:06:02.883Z,2.15
2023-08-17T05:08:29.556Z,2.03
2023-08-17T05:10:56.881Z,3.10
2023-08-17T05:13:25.738Z,3.63
2023-08-17T05:15:53.811Z,3.03
2023-08-17T05:18:22.440Z,2.25
2023-08-17T05:20:49.200Z,2.58
2023-08-17T05:23:15.882Z,2.55
2023-08-17T05:25:47.650Z,2.40
2023-08-17T05:28:15.181Z,2.75
2023-08-17T05:30:41.926Z,2.15
2023-08-17T05:33:08.778Z,1.75
2023-08-17T05:35:35.771Z,2.17
2023-08-17T05:38:02.917Z,3.20
2023-08-17T05:40:33.379Z,2.88
2023-08-17T05:47:53.750Z,2.10
2023-08-17T05:52:47.094Z,1.80
2023-08-17T05:55:13.741Z,2.00
2023-08-17T05:57:40.520Z,1.55
2023-08-17T06:00:09.690Z,1.60
2023-08-17T06:02:39.825Z,2.40
2023-08-17T06:05:06.970Z,1.75
2023-08-17T06:07:33.595Z,1.90
2023-08-17T06:10:00.408Z,1.63
2023-08-17T06:12:27.039Z,1.45
2023-08-17T06:14:53.834Z,2.10
2023-08-17T06:17:20.525Z,1.80
2023-08-17T06:19:47.280Z,1.98
2023-08-17T06:22:13.925Z,2.13
2023-08-17T06:24:40.663Z,1.85
2023-08-17T06:27:07.323Z,1.80
2023-08-17T06:29:34.130Z,1.70
2023-08-17T06:32:00.882Z,1.73
2023-08-17T06:34:27.556Z,1.90
2023-08-17T06:37:02.860Z,1.75
2023-08-17T06:39:29.918Z,2.50
2023-08-17T06:41:56.549Z,2.47
2023-08-17T06:44:23.289Z,1.90
2023-08-17T06:46:49.913Z,2.10
2023-08-17T06:49:16.643Z,2.50
2023-08-17T06:51:43.348Z,1.98
2023-08-17T06:54:10.692Z,2.03
2023-08-17T06:56:37.373Z,2.78
2023-08-17T06:59:04.297Z,2.63
2023-08-17T07:01:31.283Z,2.63
2023-08-17T07:03:58.379Z,3.17
2023-08-17T07:06:25.792Z,2.67
2023-08-17T07:08:53.846Z,2.85
2023-08-17T07:11:20.712Z,3.15
2023-08-17T07:13:47.625Z,3.30
2023-08-17T07:16:15.238Z,3.15
2023-08-17T07:18:42.103Z,3.70
2023-08-17T07:21:08.810Z,4.10
2023-08-17T07:23:35.620Z,4.38
2023-08-17T07:26:02.372Z,3.53
2023-08-17T07:28:48.261Z,3.85
2023-08-17T07:31:15.097Z,4.03
2023-08-17T07:33:41.916Z,3.03
2023-08-17T07:36:08.697Z,4.07
2023-08-17T07:38:35.329Z,3.72
2023-08-17T07:41:02.013Z,3.90
2023-08-17T07:43:28.750Z,3.70
2023-08-17T07:45:56.365Z,3.53
2023-08-17T07:48:23.496Z,3.33
2023-08-17T07:50:53.836Z,2.80
2023-08-17T07:53:20.654Z,2.90
2023-08-17T07:55:47.895Z,3.00
2023-08-17T07:58:15.821Z,2.67
2023-08-17T08:00:42.469Z,3.47
2023-08-17T08:03:09.572Z,3.53
2023-08-17T08:05:36.435Z,2.90
2023-08-17T08:08:03.489Z,3.15
2023-08-17T08:10:30.151Z,2.88
2023-08-17T08:12:56.908Z,2.78
2023-08-17T08:15:23.610Z,2.78
2023-08-17T08:17:50.531Z,3.50
2023-08-17T08:20:17.245Z,2.53
2023-08-17T08:22:43.927Z,3.22
2023-08-17T08:25:11.279Z,3.00
2023-08-17T08:27:38.439Z,2.70
2023-08-17T08:30:06.402Z,3.00
2023-08-17T08:32:33.217Z,2.42
2023-08-17T08:34:59.970Z,2.40
2023-08-17T08:37:27.190Z,2.80
2023-08-17T08:39:55.405Z,2.20
2023-08-17T08:42:23.914Z,3.17
2023-08-17T08:44:51.674Z,2.63
2023-08-17T08:47:19.546Z,2.65
2023-08-17T08:49:54.961Z,2.88
2023-08-17T08:52:24.742Z,2.35
2023-08-17T08:54:52.276Z,3.42
2023-08-17T08:57:19.866Z,3.20
2023-08-17T08:59:47.252Z,2.90
2023-08-17T09:02:16.690Z,2.92
2023-08-17T09:04:47.151Z,3.10
2023-08-17T09:07:18.846Z,3.38
2023-08-17T09:09:46.025Z,2.65
2023-08-17T09:12:12.880Z,2.97
2023-08-17T09:14:42.089Z,2.90
2023-08-17T09:17:09.295Z,3.05
2023-08-17T09:19:36.064Z,2.53
2023-08-17T09:22:03.124Z,2.90
2023-08-17T09:24:37.575Z,3.17
2023-08-17T09:29:39.490Z,2.58
2023-08-17T09:32:07.779Z,2.63
2023-08-17T09:34:34.484Z,2.65
2023-08-17T09:37:05.478Z,2.78
2023-08-17T09:39:32.921Z,3.03
2023-08-17T09:42:00.885Z,2.80
2023-08-17T09:44:28.047Z,2.63
2023-08-17T09:46:57.934Z,2.63
2023-08-17T09:51:55.021Z,2.38
2023-08-17T09:54:29.506Z,2.13
2023-08-17T09:56:56.653Z,2.53
2023-08-17T09:59:24.667Z,2.95
2023-08-17T10:04:24.033Z,2.47
2023-08-17T10:07:01.636Z,2.72
2023-08-17T10:09:33.049Z,2.47
2023-08-17T10:12:04.257Z,1.75
2023-08-17T10:14:36.233Z,2.50
2023-08-17T10:17:11.563Z,2.13
2023-08-17T10:19:53.195Z,2.10
2023-08-17T10:22:32.747Z,2.13
2023-08-17T10:25:00.554Z,2.15
2023-08-17T10:27:28.179Z,2.10
2023-08-17T10:29:55.357Z,2.30
2023-08-17T10:32:26.193Z,2.35
2023-08-17T10:34:53.445Z,2.20
2023-08-17T10:37:22.011Z,2.50
2023-08-17T10:39:49.575Z,2.28
2023-08-17T10:42:20.821Z,2.50
2023-08-17T10:44:49.362Z,2.20
2023-08-17T10:47:36.441Z,2.40
2023-08-17T10:50:08.222Z,2.25
2023-08-17T10:52:36.598Z,2.28
2023-08-17T10:55:08.961Z,2.20
2023-08-17T10:57:40.488Z,2.75
2023-08-17T11:00:33.027Z,2.03
2023-08-17T11:03:18.255Z,2.40
2023-08-17T11:05:48.005Z,2.10
2023-08-17T11:11:01.380Z,2.42
2023-08-17T11:13:30.628Z,2.03
2023-08-17T11:16:03.454Z,2.47
2023-08-17T11:18:31.449Z,2.58
2023-08-17T11:20:58.263Z,2.25
2023-08-17T11:23:25.975Z,2.60
2023-08-17T11:25:56.190Z,2.40
2023-08-17T11:31:03.138Z,2.70
2023-08-17T11:33:31.689Z,2.40
2023-08-17T11:38:36.662Z,2.75
2023-08-17T11:41:07.275Z,2.38
2023-08-17T11:43:34.392Z,2.47
2023-08-17T11:46:02.754Z,1.85
2023-08-17T11:51:03.026Z,2.25
2023-08-17T11:53:40.938Z,2.63
2023-08-17T11:56:10.649Z,2.20
2023-08-17T11:58:43.753Z,2.90
2023-08-17T12:01:34.350Z,2.22
2023-08-17T12:04:01.187Z,2.75
2023-08-17T12:06:28.076Z,2.13
2023-08-17T12:08:54.987Z,2.28
2023-08-17T12:11:25.180Z,1.90
2023-08-17T12:13:54.880Z,2.33
2023-08-17T12:18:49.770Z,1.85
2023-08-17T12:21:16.663Z,2.33
2023-08-17T12:23:44.047Z,2.70
2023-08-17T12:26:11.029Z,2.75
2023-08-17T12:28:37.714Z,2.08
2023-08-17T12:31:04.624Z,2.22
2023-08-17T12:33:31.516Z,2.22
2023-08-17T12:35:58.540Z,2.65
2023-08-17T12:38:26.197Z,2.50
2023-08-17T12:40:53.406Z,2.22
2023-08-17T12:43:20.198Z,2.03
2023-08-17T12:45:47.351Z,2.00
2023-08-17T12:48:14.161Z,2.25
2023-08-17T12:50:44.232Z,1.98
2023-08-17T12:53:11.731Z,2.20
2023-08-17T12:55:38.592Z,3.03
2023-08-17T12:58:06.139Z,2.45
2023-08-17T13:00:32.997Z,2.30
2023-08-17T13:02:59.959Z,2.53
2023-08-17T13:05:26.779Z,2.15
2023-08-17T13:07:53.610Z,2.30
2023-08-17T13:10:20.450Z,2.28
2023-08-17T13:12:48.484Z,2.10
2023-08-17T13:15:15.330Z,2.20
2023-08-17T13:17:42.691Z,1.90
2023-08-17T13:20:10.852Z,2.00
2023-08-17T13:22:37.746Z,2.30
2023-08-17T13:25:04.914Z,2.47
2023-08-17T13:27:31.716Z,2.33
2023-08-17T13:29:59.945Z,2.13
2023-08-17T13:32:27.205Z,2.58
2023-08-17T13:34:54.818Z,2.30
2023-08-17T13:37:22.358Z,2.60
2023-08-17T13:39:49.087Z,2.33
2023-08-17T13:42:15.792Z,2.13
2023-08-17T13:44:42.408Z,2.45
2023-08-17T13:47:09.148Z,2.63
2023-08-17T13:49:35.927Z,2.67
2023-08-17T13:52:02.842Z,2.65
2023-08-17T13:54:29.520Z,2.00
2023-08-17T13:56:56.829Z,2.70
2023-08-17T13:59:23.435Z,2.15
2023-08-17T14:01:50.353Z,2.75
2023-08-17T14:04:18.859Z,2.15
2023-08-17T14:06:45.786Z,2.30
2023-08-17T14:09:12.702Z,2.05
2023-08-17T14:11:39.617Z,2.40
2023-08-17T14:14:08.441Z,2.33
2023-08-17T14:16:35.441Z,2.35
2023-08-17T14:19:02.142Z,2.67
2023-08-17T14:21:28.875Z,2.22
2023-08-17T14:23:55.546Z,2.53
2023-08-17T14:26:22.392Z,1.90
2023-08-17T14:28:50.352Z,1.98
2023-08-17T14:31:18.787Z,2.10
2023-08-17T14:33:49.215Z,2.53
2023-08-17T14:38:46.363Z,2.65
2023-08-17T14:41:13.428Z,2.30
2023-08-17T14:43:40.322Z,2.70
2023-08-17T14:46:07.459Z,2.00
2023-08-17T14:48:34.283Z,2.35
2023-08-17T14:51:01.119Z,2.10
2023-08-17T14:53:27.969Z,2.17
2023-08-17T14:55:54.842Z,2.33
2023-08-17T14:58:22.317Z,2.15
2023-08-17T15:00:48.996Z,2.47
2023-08-17T15:03:15.752Z,2.33
2023-08-17T15:05:42.564Z,2.72
2023-08-17T15:08:09.204Z,2.30
2023-08-17T15:10:35.989Z,2.53
2023-08-17T15:13:03.639Z,2.45
2023-08-17T15:15:30.695Z,2.20
2023-08-17T15:17:57.451Z,2.40
2023-08-17T15:20:24.359Z,2.13
2023-08-17T15:22:51.012Z,2.28
2023-08-17T15:25:17.875Z,1.95
2023-08-17T15:27:44.653Z,1.98
2023-08-17T15:30:30.410Z,2.20
2023-08-17T15:32:57.343Z,2.15
2023-08-17T15:35:24.024Z,2.45
2023-08-17T15:37:50.793Z,2.10
2023-08-17T15:40:17.535Z,2.25
2023-08-17T15:42:44.272Z,1.77
2023-08-17T15:45:11.097Z,1.95
2023-08-17T15:47:37.974Z,2.30
2023-08-17T15:50:04.945Z,2.45
2023-08-17T15:52:31.693Z,1.80
2023-08-17T15:54:58.368Z,2.25
2023-08-17T15:57:25.859Z,1.60
2023-08-17T15:59:53.480Z,1.42
2023-08-17T16:02:20.276Z,1.90
2023-08-17T16:04:47.486Z,1.92
2023-08-17T16:07:14.456Z,2.42
2023-08-17T16:09:41.841Z,2.15
2023-08-17T16:12:09.704Z,1.58
2023-08-17T16:14:36.501Z,1.73
2023-08-17T16:17:03.314Z,1.92
2023-08-17T16:19:30.053Z,1.70
2023-08-17T16:21:56.686Z,1.30
2023-08-17T16:26:53.149Z,1.52
2023-08-17T16:29:19.870Z,2.30
2023-08-17T16:32:00.761Z,1.63
2023-08-17T16:34:27.775Z,2.05
2023-08-17T16:36:54.479Z,1.80
2023-08-17T16:39:21.254Z,1.90
2023-08-17T16:41:49.793Z,1.70
2023-08-17T16:46:43.358Z,1.45
2023-08-17T16:49:10.058Z,1.63
2023-08-17T16:51:36.755Z,2.15
2023-08-17T16:54:03.506Z,1.80
2023-08-17T16:56:30.163Z,1.85
2023-08-17T16:59:01.661Z,1.80
2023-08-17T17:01:28.847Z,2.30
2023-08-17T17:03:55.628Z,2.13
2023-08-17T17:06:22.377Z,1.90
2023-08-17T17:08:49.053Z,2.08
2023-08-17T17:11:15.804Z,2.20
2023-08-17T17:13:42.543Z,1.65
2023-08-17T17:16:09.375Z,1.73
2023-08-17T17:18:36.113Z,1.85
2023-08-17T17:21:02.933Z,1.98
2023-08-17T17:23:29.987Z,2.10
2023-08-17T17:25:56.681Z,1.65
2023-08-17T17:28:23.332Z,2.15
2023-08-17T17:30:50.233Z,2.38
2023-08-17T17:33:17.027Z,1.60
2023-08-17T17:35:43.792Z,1.90
2023-08-17T17:38:10.535Z,1.60
2023-08-17T17:40:37.316Z,2.20
2023-08-17T17:43:04.128Z,1.50
2023-08-17T17:45:30.820Z,2.35
2023-08-17T17:47:57.520Z,2.28
2023-08-17T17:50:24.350Z,2.30
2023-08-17T17:52:51.083Z,2.38
2023-08-17T17:55:17.893Z,2.00
2023-08-17T17:57:44.781Z,2.17
2023-08-17T18:00:12.081Z,2.65
2023-08-17T18:02:42.909Z,1.90
2023-08-17T18:05:11.329Z,2.75
2023-08-17T18:07:38.168Z,2.13
2023-08-17T18:10:05.442Z,1.70
2023-08-17T18:12:33.421Z,2.17
2023-08-17T18:15:00.202Z,2.58
2023-08-17T18:17:27.161Z,1.83
2023-08-17T18:19:54.255Z,2.67
2023-08-17T18:22:21.954Z,2.92
2023-08-17T18:24:48.611Z,2.17
2023-08-17T18:27:15.318Z,2.47
2023-08-17T18:29:41.916Z,2.30
2023-08-17T18:32:08.574Z,2.83
2023-08-17T18:34:35.293Z,2.03
2023-08-17T18:37:01.968Z,2.85
2023-08-17T18:39:28.637Z,2.88
2023-08-17T18:41:55.305Z,2.75
2023-08-17T18:44:23.308Z,2.30
2023-08-17T18:46:50.085Z,2.53
2023-08-17T18:49:16.795Z,2.83
2023-08-17T18:51:43.553Z,2.70
2023-08-17T18:54:10.189Z,2.55
2023-08-17T18:56:36.891Z,2.92
2023-08-17T18:59:03.901Z,3.10
2023-08-17T19:01:30.629Z,3.40
2023-08-17T19:03:57.595Z,2.88
2023-08-17T19:06:24.332Z,3.60
2023-08-17T19:08:50.981Z,3.45
2023-08-17T19:11:17.692Z,3.30
2023-08-17T19:13:44.348Z,3.40
2023-08-17T19:16:11.136Z,3.38
2023-08-17T19:18:37.911Z,3.45
2023-08-17T19:21:05.082Z,3.67
2023-08-17T19:23:31.768Z,3.20
2023-08-17T19:25:58.526Z,4.07
2023-08-17T19:28:25.224Z,3.65
2023-08-17T19:30:51.973Z,3.47
2023-08-17T19:33:18.717Z,3.55
2023-08-17T19:35:46.334Z,4.03
2023-08-17T19:38:13.166Z,3.45
2023-08-17T19:40:40.470Z,3.92
2023-08-17T19:43:07.974Z,3.83
2023-08-17T19:45:35.425Z,3.70
2023-08-17T19:48:02.224Z,3.80
2023-08-17T19:50:29.191Z,3.47
2023-08-17T19:52:55.900Z,3.38
2023-08-17T19:55:22.600Z,3.72
2023-08-17T19:57:49.280Z,4.00
2023-08-17T20:00:16.373Z,3.60
2023-08-17T20:02:47.249Z,3.78
2023-08-17T20:05:14.564Z,3.33
2023-08-17T20:07:41.199Z,3.53
2023-08-17T20:10:08.781Z,3.67
2023-08-17T20:12:35.509Z,3.88
2023-08-17T20:15:03.413Z,3.67
2023-08-17T20:17:30.383Z,4.07
2023-08-17T20:19:57.373Z,3.45
2023-08-17T20:22:25.149Z,4.05
2023-08-17T20:24:51.973Z,3.33
2023-08-17T20:27:18.745Z,3.53
2023-08-17T20:29:45.679Z,3.70
2023-08-17T20:32:12.419Z,3.58
2023-08-17T20:34:39.654Z,4.13
2023-08-17T20:37:06.468Z,3.80
2023-08-17T20:39:33.395Z,3.58
2023-08-17T20:42:08.026Z,5.00
2023-08-17T20:44:53.477Z,3.95
2023-08-17T20:47:20.228Z,3.75
2023-08-17T20:49:46.821Z,4.00
2023-08-17T20:52:15.497Z,4.00
2023-08-17T20:54:42.929Z,4.10
2023-08-17T20:57:09.710Z,3.75
2023-08-17T20:59:37.258Z,4.35
2023-08-17T21:02:04.290Z,4.38
2023-08-17T21:04:30.959Z,4.05
2023-08-17T21:31:24.490Z,4.00
2023-08-17T21:33:51.217Z,3.80
2023-08-17T21:36:17.940Z,4.57
2023-08-17T21:38:44.540Z,4.97
2023-08-17T21:41:11.292Z,4.22
2023-08-17T21:43:38.045Z,3.60
2023-08-17T21:46:04.848Z,3.80
2023-08-17T21:48:31.483Z,4.40
2023-08-17T21:50:58.512Z,3.53
2023-08-17T21:53:25.170Z,4.50
2023-08-17T21:55:52.538Z,3.38
2023-08-17T21:58:19.558Z,4.30
2023-08-17T22:00:47.435Z,3.95
2023-08-17T22:03:15.294Z,4.53
2023-08-17T22:05:46.008Z,4.70
2023-08-17T22:08:13.320Z,4.45
2023-08-17T22:10:40.029Z,4.13
2023-08-17T22:13:06.759Z,3.92
2023-08-17T22:15:33.481Z,3.67
2023-08-17T22:18:01.114Z,3.72
2023-08-17T22:20:27.963Z,4.65
2023-08-17T22:22:54.774Z,4.30
2023-08-17T22:25:21.474Z,4.57
2023-08-17T22:27:48.872Z,4.15
2023-08-17T22:30:15.547Z,3.95
2023-08-17T22:32:42.268Z,3.80
2023-08-17T22:35:11.448Z,4.90
2023-08-17T22:37:38.685Z,4.70
2023-08-17T22:40:07.233Z,4.03
2023-08-17T22:42:33.992Z,3.60
2023-08-17T22:45:00.665Z,4.57
2023-08-17T22:47:27.991Z,4.55
2023-08-17T22:49:55.753Z,4.47
2023-08-17T22:52:22.816Z,4.93
2023-08-17T22:54:49.875Z,4.38
2023-08-17T22:57:17.192Z,5.03
2023-08-17T22:59:43.991Z,4.97
2023-08-17T23:02:10.747Z,5.60
2023-08-17T23:04:37.599Z,4.68
2023-08-17T23:07:05.067Z,5.47
2023-08-17T23:09:31.899Z,4.35
2023-08-17T23:11:58.671Z,5.63
2023-08-17T23:14:25.354Z,4.30
2023-08-17T23:16:52.174Z,4.75
2023-08-17T23:19:18.933Z,5.15
2023-08-17T23:21:45.696Z,4.47
2023-08-17T23:24:12.394Z,4.38
2023-08-17T23:26:39.145Z,4.65
2023-08-17T23:29:06.083Z,4.38
2023-08-17T23:31:32.967Z,4.97
2023-08-17T23:33:59.701Z,4.97
2023-08-17T23:36:27.321Z,4.65
2023-08-17T23:38:54.012Z,4.70
2023-08-17T23:41:20.837Z,4.40
2023-08-17T23:43:47.495Z,4.20
2023-08-17T23:46:14.222Z,4.25
2023-08-17T23:48:40.915Z,4.50
2023-08-17T23:51:07.719Z,3.75
2023-08-17T23:53:34.613Z,4.80
2023-08-17T23:56:01.420Z,4.65
2023-08-17T23:58:28.082Z,4.03
